createdAt,value
2023-05-18T00:00:05.407Z,4.00
2023-05-18T00:02:33.048Z,6.80
2023-05-18T00:05:02.587Z,3.00
2023-05-18T00:07:34.326Z,4.00
2023-05-18T00:10:02.239Z,4.00
2023-05-18T00:12:29.987Z,3.80
2023-05-18T00:14:57.607Z,6.80
2023-05-18T00:17:25.612Z,4.00
2023-05-18T00:19:53.326Z,3.20
2023-05-18T00:22:20.914Z,4.00
2023-05-18T00:24:48.512Z,4.20
2023-05-18T00:27:16.256Z,3.00
2023-05-18T00:29:44.494Z,5.60
2023-05-18T00:32:12.114Z,4.00
2023-05-18T00:34:39.789Z,3.00
2023-05-18T00:37:07.410Z,3.20
2023-05-18T00:39:35.004Z,3.00
2023-05-18T00:42:03.092Z,3.20
2023-05-18T00:44:30.847Z,6.00
2023-05-18T00:47:00.270Z,3.40
2023-05-18T00:49:27.925Z,6.60
2023-05-18T00:51:55.528Z,3.00
2023-05-18T00:54:23.516Z,7.00
2023-05-18T00:56:51.242Z,4.00
2023-05-18T00:59:18.857Z,3.00
2023-05-18T01:01:47.081Z,1.40
2023-05-18T01:04:15.454Z,2.60
2023-05-18T01:06:44.094Z,3.00
2023-05-18T01:09:12.331Z,3.00
2023-05-18T01:11:40.632Z,4.00
2023-05-18T01:14:08.287Z,3.00
2023-05-18T01:16:37.541Z,3.00
2023-05-18T01:19:06.092Z,3.00
2023-05-18T01:21:34.497Z,3.40
2023-05-18T01:24:03.652Z,4.80
2023-05-18T01:26:31.870Z,3.80
2023-05-18T01:28:59.462Z,4.00
2023-05-18T01:31:29.050Z,3.00
2023-05-18T01:33:56.802Z,1.00
2023-05-18T01:36:24.393Z,3.60
2023-05-18T01:38:51.998Z,2.60
2023-05-18T01:41:19.658Z,3.80
2023-05-18T01:43:47.598Z,4.00
2023-05-18T01:46:15.229Z,3.00
2023-05-18T01:48:42.894Z,4.00
2023-05-18T01:51:10.491Z,4.40
2023-05-18T01:53:38.548Z,4.00
2023-05-18T01:56:06.540Z,4.40
2023-05-18T01:58:34.124Z,3.60
2023-05-18T02:01:01.758Z,1.80
2023-05-18T02:03:29.539Z,3.00
2023-05-18T02:05:57.273Z,3.60
2023-05-18T02:08:25.230Z,3.60
2023-05-18T02:10:52.883Z,1.00
2023-05-18T02:13:20.496Z,4.20
2023-05-18T02:15:48.643Z,3.60
2023-05-18T02:18:16.740Z,4.00
2023-05-18T02:20:44.655Z,2.20
2023-05-18T02:23:12.337Z,1.00
2023-05-18T02:25:40.076Z,3.20
2023-05-18T02:28:07.721Z,3.20
2023-05-18T02:30:35.407Z,4.00
2023-05-18T02:33:04.931Z,2.20
2023-05-18T02:35:32.807Z,3.20
2023-05-18T02:38:00.644Z,3.60
2023-05-18T02:40:28.285Z,3.00
2023-05-18T02:42:55.930Z,2.60
2023-05-18T02:45:23.769Z,3.80
2023-05-18T02:47:51.536Z,1.00
2023-05-18T02:50:19.192Z,3.00
2023-05-18T02:52:49.333Z,1.80
2023-05-18T02:55:17.464Z,4.80
2023-05-18T02:57:47.375Z,1.00
2023-05-18T03:00:16.901Z,3.00
2023-05-18T03:02:48.635Z,1.40
2023-05-18T03:05:16.753Z,3.00
2023-05-18T03:07:51.167Z,1.80
2023-05-18T03:10:18.788Z,1.40
2023-05-18T03:12:46.414Z,3.80
2023-05-18T03:15:16.364Z,1.00
2023-05-18T03:17:44.048Z,3.40
2023-05-18T03:20:12.276Z,1.00
2023-05-18T03:22:39.904Z,1.40
2023-05-18T03:25:07.493Z,5.20
2023-05-18T03:27:35.094Z,6.40
2023-05-18T03:30:02.738Z,5.20
2023-05-18T03:32:32.113Z,2.40
2023-05-18T03:35:01.196Z,2.60
2023-05-18T03:37:28.884Z,3.40
2023-05-18T03:39:56.803Z,4.00
2023-05-18T03:42:25.856Z,3.00
2023-05-18T03:44:53.884Z,4.00
2023-05-18T03:47:22.304Z,3.00
2023-05-18T03:49:49.974Z,1.80
2023-05-18T03:52:22.283Z,1.00
2023-05-18T03:54:50.270Z,3.00
2023-05-18T03:57:17.869Z,3.40
2023-05-18T03:59:45.736Z,3.00
2023-05-18T04:02:13.426Z,1.00
2023-05-18T04:04:42.137Z,3.40
2023-05-18T04:07:09.755Z,3.00
2023-05-18T04:09:37.678Z,2.60
2023-05-18T04:12:05.464Z,2.20
2023-05-18T04:14:34.254Z,1.80
2023-05-18T04:17:05.100Z,3.40
2023-05-18T04:19:33.095Z,3.40
2023-05-18T04:22:01.284Z,3.00
2023-05-18T04:24:32.677Z,3.00
2023-05-18T04:27:01.006Z,3.80
2023-05-18T04:29:29.326Z,3.00
2023-05-18T04:32:00.129Z,3.00
2023-05-18T04:34:27.861Z,1.80
2023-05-18T04:36:56.146Z,2.80
2023-05-18T04:39:23.730Z,1.00
2023-05-18T04:41:58.277Z,1.00
2023-05-18T04:44:26.033Z,3.80
2023-05-18T04:46:54.369Z,4.00
2023-05-18T04:49:23.349Z,3.20
2023-05-18T04:51:55.763Z,4.80
2023-05-18T04:54:23.438Z,6.40
2023-05-18T04:56:51.194Z,5.80
2023-05-18T04:59:19.199Z,3.80
2023-05-18T05:01:47.188Z,3.60
2023-05-18T05:04:15.079Z,4.00
2023-05-18T05:06:42.750Z,3.80
2023-05-18T05:09:10.380Z,5.60
2023-05-18T05:11:38.086Z,6.00
2023-05-18T05:14:05.883Z,3.80
2023-05-18T05:16:33.510Z,1.80
2023-05-18T05:19:01.333Z,6.20
2023-05-18T05:21:29.028Z,1.40
2023-05-18T05:23:57.057Z,4.00
2023-05-18T05:26:24.846Z,6.20
2023-05-18T05:28:52.802Z,6.00
2023-05-18T05:31:20.465Z,4.80
2023-05-18T05:33:48.159Z,4.40
2023-05-18T05:36:16.179Z,6.40
2023-05-18T05:38:43.823Z,3.40
2023-05-18T05:41:11.535Z,9.00
2023-05-18T05:43:39.193Z,6.20
2023-05-18T05:46:06.791Z,6.00
2023-05-18T05:48:34.495Z,6.00
2023-05-18T05:51:03.715Z,7.00
2023-05-18T05:53:31.323Z,4.80
2023-05-18T05:55:58.972Z,5.80
2023-05-18T05:58:26.610Z,5.40
2023-05-18T06:00:54.258Z,6.00
2023-05-18T06:03:22.057Z,7.40
2023-05-18T06:05:49.814Z,4.00
2023-05-18T06:08:17.464Z,6.50
2023-05-18T06:10:45.204Z,6.00
2023-05-18T06:13:13.697Z,6.25
2023-05-18T06:15:41.320Z,6.00
2023-05-18T06:18:09.927Z,6.00
2023-05-18T06:20:38.460Z,6.50
2023-05-18T06:23:06.103Z,3.50
2023-05-18T06:25:35.752Z,1.00
2023-05-18T06:28:03.670Z,6.00
2023-05-18T06:30:31.353Z,7.50
2023-05-18T06:32:59.089Z,6.00
2023-05-18T06:35:26.758Z,3.00
2023-05-18T06:37:54.462Z,1.00
2023-05-18T06:40:22.190Z,6.50
2023-05-18T06:42:49.820Z,6.00
2023-05-18T06:45:17.490Z,5.00
2023-05-18T06:47:45.262Z,3.75
2023-05-18T06:50:13.277Z,4.00
2023-05-18T06:52:40.956Z,3.25
2023-05-18T06:55:09.341Z,3.25
2023-05-18T06:57:36.986Z,6.25
2023-05-18T07:00:07.460Z,6.00
2023-05-18T07:02:35.524Z,4.50
2023-05-18T07:05:05.753Z,4.00
2023-05-18T07:07:33.490Z,1.00
2023-05-18T07:10:01.307Z,5.50
2023-05-18T07:12:29.236Z,4.50
2023-05-18T07:14:57.278Z,6.75
2023-05-18T07:17:26.821Z,6.00
2023-05-18T07:19:54.647Z,3.25
2023-05-18T07:22:22.332Z,5.00
2023-05-18T07:24:50.155Z,6.00
2023-05-18T07:27:18.203Z,3.00
2023-05-18T07:29:46.140Z,1.50
2023-05-18T07:32:13.857Z,6.00
2023-05-18T07:34:42.661Z,4.50
2023-05-18T07:37:10.363Z,4.00
2023-05-18T07:39:40.405Z,4.00
2023-05-18T07:42:08.187Z,4.50
2023-05-18T07:44:36.068Z,4.00
2023-05-18T07:47:03.992Z,4.00
2023-05-18T07:49:31.889Z,6.25
2023-05-18T07:52:01.001Z,3.25
2023-05-18T07:54:29.101Z,2.00
2023-05-18T07:56:59.102Z,2.50
2023-05-18T07:59:28.121Z,4.00
2023-05-18T08:01:58.020Z,4.00
2023-05-18T08:04:26.188Z,5.00
2023-05-18T08:06:54.997Z,3.50
2023-05-18T08:09:23.308Z,3.00
2023-05-18T08:11:51.787Z,3.25
2023-05-18T08:14:19.481Z,4.00
2023-05-18T08:16:47.721Z,3.50
2023-05-18T08:19:15.744Z,2.00
2023-05-18T08:21:43.591Z,5.50
2023-05-18T08:24:11.769Z,2.00
2023-05-18T08:26:39.770Z,4.50
2023-05-18T08:29:10.297Z,3.25
2023-05-18T08:31:38.282Z,4.00
2023-05-18T08:34:06.290Z,1.00
2023-05-18T08:36:34.639Z,5.00
2023-05-18T08:39:03.078Z,3.00
2023-05-18T08:41:31.454Z,4.75
2023-05-18T08:43:59.222Z,3.75
2023-05-18T08:46:27.506Z,3.25
2023-05-18T08:48:55.275Z,2.00
2023-05-18T08:51:23.049Z,3.25
2023-05-18T08:53:51.207Z,4.00
2023-05-18T08:56:19.166Z,5.00
2023-05-18T08:58:46.940Z,3.00
2023-05-18T09:01:14.685Z,3.00
2023-05-18T09:03:42.555Z,3.75
2023-05-18T09:06:10.977Z,2.50
2023-05-18T09:08:39.234Z,3.25
2023-05-18T09:11:07.032Z,3.75
2023-05-18T09:13:34.809Z,6.50
2023-05-18T09:16:02.720Z,6.00
2023-05-18T09:18:30.860Z,3.50
2023-05-18T09:20:58.881Z,6.00
2023-05-18T09:23:26.830Z,4.00
2023-05-18T09:25:54.573Z,5.50
2023-05-18T09:28:22.453Z,2.00
2023-05-18T09:30:50.659Z,2.50
2023-05-18T09:33:19.469Z,0.00
2023-05-18T09:35:47.686Z,3.50
2023-05-18T09:38:15.669Z,4.00
2023-05-18T09:40:43.393Z,3.00
2023-05-18T09:43:11.526Z,3.00
2023-05-18T09:45:39.343Z,6.75
2023-05-18T09:48:07.110Z,2.50
2023-05-18T09:50:35.020Z,6.00
2023-05-18T09:53:03.262Z,6.60
2023-05-18T09:55:31.380Z,4.00
2023-05-18T09:57:59.400Z,4.00
2023-05-18T10:00:27.408Z,5.60
2023-05-18T10:02:56.711Z,3.00
2023-05-18T10:05:24.715Z,6.00
2023-05-18T10:07:52.973Z,4.00
2023-05-18T10:10:20.985Z,4.00
2023-05-18T10:12:48.817Z,6.20
2023-05-18T10:15:17.354Z,6.00
2023-05-18T10:17:45.327Z,7.00
2023-05-18T10:20:13.859Z,4.00
2023-05-18T10:22:41.913Z,4.80
2023-05-18T10:25:09.744Z,6.20
2023-05-18T10:27:37.677Z,4.40
2023-05-18T10:30:05.636Z,3.60
2023-05-18T10:32:33.925Z,7.20
2023-05-18T10:35:01.835Z,5.00
2023-05-18T10:37:31.084Z,4.40
2023-05-18T10:39:58.820Z,5.00
2023-05-18T10:42:26.669Z,5.00
2023-05-18T10:44:54.944Z,3.60
2023-05-18T10:47:23.061Z,5.60
2023-05-18T10:49:50.869Z,5.20
2023-05-18T10:52:18.792Z,5.60
2023-05-18T10:54:46.604Z,6.00
2023-05-18T10:57:15.107Z,8.40
2023-05-18T10:59:46.703Z,4.20
2023-05-18T11:02:16.224Z,5.80
2023-05-18T11:04:44.168Z,5.00
2023-05-18T11:07:12.299Z,6.00
2023-05-18T11:09:40.562Z,5.00
2023-05-18T11:12:09.042Z,6.00
2023-05-18T11:14:37.071Z,4.80
2023-05-18T11:17:04.985Z,5.00
2023-05-18T11:19:32.860Z,3.40
2023-05-18T11:22:01.737Z,5.40
2023-05-18T11:24:29.898Z,5.00
2023-05-18T11:26:57.754Z,3.00
2023-05-18T11:29:26.013Z,6.80
2023-05-18T11:31:54.084Z,6.00
2023-05-18T11:34:22.876Z,5.00
2023-05-18T11:36:51.114Z,6.00
2023-05-18T11:39:18.894Z,9.60
2023-05-18T11:41:47.833Z,6.00
2023-05-18T11:44:16.461Z,5.00
2023-05-18T11:46:44.786Z,5.00
2023-05-18T11:49:13.233Z,7.40
2023-05-18T11:51:41.071Z,6.00
2023-05-18T11:54:09.221Z,5.40
2023-05-18T11:56:37.053Z,3.40
2023-05-18T11:59:05.396Z,5.00
2023-05-18T12:01:33.445Z,6.00
2023-05-18T12:04:01.247Z,6.00
2023-05-18T12:06:29.239Z,5.80
2023-05-18T12:08:57.047Z,5.00
2023-05-18T12:11:24.946Z,6.00
2023-05-18T12:13:53.063Z,5.00
2023-05-18T12:16:20.887Z,6.00
2023-05-18T12:18:48.892Z,5.00
2023-05-18T12:21:17.281Z,6.00
2023-05-18T12:23:45.915Z,4.20
2023-05-18T12:26:14.659Z,0.40
2023-05-18T12:28:43.292Z,8.00
2023-05-18T12:31:11.249Z,6.00
2023-05-18T12:33:39.182Z,6.00
2023-05-18T12:36:07.465Z,5.00
2023-05-18T12:38:36.289Z,6.60
2023-05-18T12:41:04.037Z,5.00
2023-05-18T12:43:31.953Z,6.60
2023-05-18T12:45:59.860Z,5.00
2023-05-18T12:48:27.913Z,5.00
2023-05-18T12:50:56.841Z,5.80
2023-05-18T12:53:25.056Z,3.00
2023-05-18T12:55:52.947Z,6.00
2023-05-18T12:58:21.290Z,1.00
2023-05-18T13:00:49.517Z,5.80
2023-05-18T13:03:17.937Z,5.00
2023-05-18T13:05:46.322Z,5.60
2023-05-18T13:08:14.221Z,3.20
2023-05-18T13:10:41.976Z,3.20
2023-05-18T13:13:10.688Z,3.60
2023-05-18T13:15:38.857Z,3.60
2023-05-18T13:18:06.814Z,5.20
2023-05-18T13:20:36.532Z,2.40
2023-05-18T13:23:04.865Z,4.80
2023-05-18T13:25:33.602Z,6.60
2023-05-18T13:28:01.755Z,3.20
2023-05-18T13:30:29.804Z,5.20
2023-05-18T13:32:57.813Z,4.00
2023-05-18T13:35:25.835Z,5.20
2023-05-18T13:37:53.654Z,6.40
2023-05-18T13:40:21.656Z,5.80
2023-05-18T13:42:49.592Z,5.00
2023-05-18T13:45:17.599Z,6.00
2023-05-18T13:47:50.877Z,3.00
2023-05-18T13:50:19.483Z,6.20
2023-05-18T13:52:48.085Z,5.60
2023-05-18T13:55:16.710Z,4.20
2023-05-18T13:57:44.557Z,5.00
2023-05-18T14:00:13.671Z,2.60
2023-05-18T14:02:41.760Z,5.00
2023-05-18T14:05:10.559Z,3.00
2023-05-18T14:07:38.457Z,3.00
2023-05-18T14:10:06.538Z,3.00
2023-05-18T14:12:34.453Z,5.40
2023-05-18T14:15:02.926Z,3.80
2023-05-18T14:17:32.850Z,5.80
2023-05-18T14:20:00.850Z,2.80
2023-05-18T14:22:30.709Z,5.00
2023-05-18T14:24:58.679Z,5.40
2023-05-18T14:27:26.844Z,4.20
2023-05-18T14:29:54.680Z,5.00
2023-05-18T14:32:22.789Z,5.00
2023-05-18T14:34:52.193Z,5.00
2023-05-18T14:37:20.058Z,5.20
2023-05-18T14:39:49.085Z,5.40
2023-05-18T14:42:16.870Z,5.20
2023-05-18T14:44:44.779Z,5.00
2023-05-18T14:47:12.814Z,3.00
2023-05-18T14:49:40.711Z,2.00
2023-05-18T14:52:08.999Z,5.00
2023-05-18T14:54:37.054Z,5.00
2023-05-18T14:57:04.964Z,5.00
2023-05-18T14:59:32.997Z,5.60
2023-05-18T15:02:01.196Z,6.00
2023-05-18T15:04:29.099Z,6.00
2023-05-18T15:06:56.937Z,2.80
2023-05-18T15:09:26.719Z,4.00
2023-05-18T15:11:54.744Z,4.00
2023-05-18T15:14:22.520Z,4.00
2023-05-18T15:16:50.737Z,4.00
2023-05-18T15:19:19.422Z,1.00
2023-05-18T15:21:47.455Z,3.80
2023-05-18T15:24:15.731Z,3.00
2023-05-18T15:26:43.606Z,5.80
2023-05-18T15:29:11.848Z,3.60
2023-05-18T15:31:40.286Z,6.00
2023-05-18T15:34:08.161Z,6.80
2023-05-18T15:36:36.631Z,6.60
2023-05-18T15:39:05.248Z,4.60
2023-05-18T15:41:34.986Z,4.60
2023-05-18T15:44:02.972Z,5.00
2023-05-18T15:46:33.351Z,4.60
2023-05-18T15:49:01.188Z,4.40
2023-05-18T15:51:29.189Z,4.00
2023-05-18T15:53:57.593Z,6.00
2023-05-18T15:56:25.975Z,4.80
2023-05-18T15:58:53.843Z,4.00
2023-05-18T16:01:21.868Z,3.80
2023-05-18T16:03:49.807Z,3.20
2023-05-18T16:06:17.935Z,4.40
2023-05-18T16:08:48.206Z,5.60
2023-05-18T16:11:16.036Z,4.00
2023-05-18T16:13:43.783Z,4.00
2023-05-18T16:16:14.377Z,5.20
2023-05-18T16:18:42.555Z,7.00
2023-05-18T16:21:10.826Z,3.60
2023-05-18T16:23:38.682Z,5.00
2023-05-18T16:26:06.542Z,4.20
2023-05-18T16:28:34.268Z,4.40
2023-05-18T16:31:04.391Z,1.60
2023-05-18T16:33:32.327Z,5.80
2023-05-18T16:36:00.194Z,6.60
2023-05-18T16:38:28.111Z,6.00
2023-05-18T16:40:55.871Z,5.20
2023-05-18T16:43:24.582Z,5.00
2023-05-18T16:45:52.480Z,4.00
2023-05-18T16:48:20.247Z,9.20
2023-05-18T16:50:48.106Z,5.40
2023-05-18T16:53:16.435Z,7.00
2023-05-18T16:55:44.665Z,4.80
2023-05-18T16:58:12.967Z,4.00
2023-05-18T17:00:40.804Z,4.00
2023-05-18T17:03:08.684Z,6.40
2023-05-18T17:05:36.651Z,6.00
2023-05-18T17:08:04.835Z,4.00
2023-05-18T17:10:35.670Z,5.20
2023-05-18T17:13:03.545Z,5.60
2023-05-18T17:15:32.062Z,6.00
2023-05-18T17:17:59.994Z,3.20
2023-05-18T17:20:28.764Z,3.00
2023-05-18T17:22:57.724Z,6.00
2023-05-18T17:25:26.756Z,7.00
2023-05-18T17:27:54.522Z,3.20
2023-05-18T17:30:22.507Z,6.00
2023-05-18T17:32:51.548Z,6.00
2023-05-18T17:35:19.504Z,4.00
2023-05-18T17:37:49.063Z,6.25
2023-05-18T17:40:16.904Z,3.60
2023-05-18T17:42:44.707Z,9.50
2023-05-18T17:45:12.975Z,7.00
2023-05-18T17:47:41.953Z,12.00
2023-05-18T17:50:09.991Z,4.00
2023-05-18T17:52:37.904Z,6.00
2023-05-18T17:55:05.597Z,3.75
2023-05-18T17:57:34.326Z,6.00
2023-05-18T18:00:05.614Z,5.50
2023-05-18T18:02:33.524Z,4.00
2023-05-18T18:05:01.289Z,3.25
2023-05-18T18:07:29.326Z,3.50
2023-05-18T18:09:57.852Z,4.00
2023-05-18T18:12:25.838Z,4.50
2023-05-18T18:14:53.750Z,6.75
2023-05-18T18:17:21.584Z,6.00
2023-05-18T18:19:49.511Z,3.25
2023-05-18T18:22:17.943Z,4.50
2023-05-18T18:24:45.800Z,4.00
2023-05-18T18:27:13.841Z,3.75
2023-05-18T18:29:41.796Z,6.00
2023-05-18T18:32:10.123Z,4.00
2023-05-18T18:34:38.303Z,6.50
2023-05-18T18:37:06.480Z,5.00
2023-05-18T18:39:35.416Z,5.50
2023-05-18T18:42:03.361Z,3.00
2023-05-18T18:44:31.826Z,3.00
2023-05-18T18:47:00.052Z,6.00
2023-05-18T18:49:27.984Z,4.00
2023-05-18T18:51:59.060Z,4.00
2023-05-18T18:54:27.658Z,4.00
2023-05-18T18:56:56.820Z,6.00
2023-05-18T18:59:25.006Z,5.50
2023-05-18T19:01:53.011Z,3.50
2023-05-18T19:04:21.092Z,3.75
2023-05-18T19:06:49.536Z,3.75
2023-05-18T19:09:20.181Z,4.00
2023-05-18T19:11:48.442Z,3.50
2023-05-18T19:14:16.846Z,3.00
2023-05-18T19:16:44.734Z,3.50
2023-05-18T19:19:15.102Z,6.00
2023-05-18T19:21:44.615Z,4.00
2023-05-18T19:24:13.040Z,6.00
2023-05-18T19:26:40.865Z,3.50
2023-05-18T19:29:11.148Z,4.00
2023-05-18T19:31:39.043Z,3.75
2023-05-18T19:34:07.005Z,5.00
2023-05-18T19:36:36.723Z,6.00
2023-05-18T19:39:06.223Z,5.50
2023-05-18T19:41:34.094Z,4.00
2023-05-18T19:44:04.460Z,2.50
2023-05-18T19:46:32.560Z,3.00
2023-05-18T19:49:01.501Z,2.50
2023-05-18T19:51:30.783Z,3.25
2023-05-18T19:53:58.669Z,2.00
2023-05-18T19:56:26.794Z,5.50
2023-05-18T19:58:56.672Z,3.00
2023-05-18T20:01:25.513Z,4.00
2023-05-18T20:03:56.528Z,4.50
2023-05-18T20:06:24.639Z,3.00
2023-05-18T20:08:52.452Z,2.50
2023-05-18T20:11:21.522Z,5.50
2023-05-18T20:13:50.056Z,3.75
2023-05-18T20:16:18.765Z,3.00
2023-05-18T20:18:46.921Z,3.00
2023-05-18T20:21:14.931Z,3.50
2023-05-18T20:23:45.476Z,3.25
2023-05-18T20:26:13.947Z,6.00
2023-05-18T20:28:42.395Z,3.50
2023-05-18T20:31:11.878Z,3.50
2023-05-18T20:33:39.788Z,3.00
2023-05-18T20:36:09.185Z,1.00
2023-05-18T20:38:39.301Z,2.00
2023-05-18T20:41:08.281Z,3.00
2023-05-18T20:43:37.850Z,1.00
2023-05-18T20:46:06.191Z,3.25
2023-05-18T20:48:36.064Z,3.50
2023-05-18T20:51:04.233Z,5.50
2023-05-18T20:53:32.126Z,5.00
2023-05-18T20:56:01.597Z,4.00
2023-05-18T20:58:29.597Z,3.00
2023-05-18T21:00:57.523Z,3.75
2023-05-18T21:03:25.943Z,4.50
2023-05-18T21:05:54.064Z,4.00
2023-05-18T21:08:21.971Z,1.50
2023-05-18T21:10:49.945Z,3.00
2023-05-18T21:13:17.926Z,3.00
2023-05-18T21:15:46.580Z,6.25
2023-05-18T21:18:14.576Z,4.00
2023-05-18T21:20:42.534Z,3.75
2023-05-18T21:23:10.345Z,3.00
2023-05-18T21:25:38.324Z,4.00
2023-05-18T21:28:06.502Z,3.00
2023-05-18T21:30:34.602Z,3.00
2023-05-18T21:33:02.948Z,3.00
2023-05-18T21:35:30.950Z,6.00
2023-05-18T21:37:58.784Z,6.75
2023-05-18T21:40:27.026Z,6.25
2023-05-18T21:42:56.312Z,4.00
2023-05-18T21:45:25.051Z,7.00
2023-05-18T21:47:52.976Z,6.50
2023-05-18T21:50:20.876Z,5.50
2023-05-18T21:52:49.127Z,6.00
2023-05-18T21:55:17.166Z,4.00
2023-05-18T21:57:44.876Z,4.00
2023-05-18T22:00:14.006Z,5.50
2023-05-18T22:02:41.958Z,4.00
2023-05-18T22:05:10.137Z,6.00
2023-05-18T22:07:38.339Z,7.00
2023-05-18T22:10:06.434Z,6.00
2023-05-18T22:12:34.501Z,9.25
2023-05-18T22:15:02.289Z,10.00
2023-05-18T22:17:30.702Z,10.00
2023-05-18T22:19:58.449Z,10.50
2023-05-18T22:22:30.637Z,9.00
2023-05-18T22:24:58.470Z,11.75
2023-05-18T22:27:26.179Z,10.75
2023-05-18T22:29:54.245Z,11.00
2023-05-18T22:32:22.205Z,12.50
2023-05-18T22:34:50.077Z,11.50
2023-05-18T22:37:17.747Z,10.25
2023-05-18T22:39:45.529Z,12.00
2023-05-18T22:42:13.238Z,7.50
2023-05-18T22:44:42.269Z,12.00
2023-05-18T22:47:10.248Z,12.80
2023-05-18T22:49:37.947Z,12.00
2023-05-18T22:52:05.648Z,10.20
2023-05-18T22:54:33.724Z,7.00
2023-05-18T22:57:01.564Z,9.00
2023-05-18T22:59:29.544Z,8.50
2023-05-18T23:01:57.326Z,6.75
2023-05-18T23:04:24.981Z,13.75
2023-05-18T23:06:53.069Z,10.40
2023-05-18T23:09:21.402Z,15.00
2023-05-18T23:11:51.660Z,11.80
2023-05-18T23:14:20.165Z,10.80
2023-05-18T23:16:49.456Z,8.80
2023-05-18T23:19:20.256Z,12.60
2023-05-18T23:21:48.264Z,7.40
2023-05-18T23:24:16.055Z,8.50
2023-05-18T23:26:43.780Z,12.80
2023-05-18T23:29:11.920Z,13.80
2023-05-18T23:31:39.981Z,11.60
2023-05-18T23:34:07.649Z,10.80
2023-05-18T23:36:36.362Z,9.00
2023-05-18T23:39:04.068Z,8.20
2023-05-18T23:41:31.780Z,6.80
2023-05-18T23:43:59.838Z,6.20
2023-05-18T23:46:27.736Z,9.00
2023-05-18T23:48:55.344Z,6.20
2023-05-18T23:51:23.362Z,5.60
2023-05-18T23:53:50.999Z,7.00
2023-05-18T23:56:19.117Z,6.20
2023-05-18T23:58:47.013Z,7.00
